createdAt,value
2019-03-26T00:00:55.624Z,24.60
2019-03-26T00:15:50.307Z,26.20
2019-03-26T00:30:57.366Z,23.25
2019-03-26T00:45:54.237Z,27.70
2019-03-26T01:00:50.326Z,22.52
2019-03-26T01:15:50.601Z,21.73
2019-03-26T01:30:50.505Z,18.37
2019-03-26T01:45:53.572Z,22.80
2019-03-26T02:00:50.518Z,27.15
2019-03-26T02:15:57.045Z,22.10
2019-03-26T02:30:50.817Z,25.68
2019-03-26T02:45:50.642Z,21.45
2019-03-26T03:00:50.586Z,19.42
2019-03-26T03:15:51.002Z,18.52
2019-03-26T03:30:50.903Z,16.30
2019-03-26T03:45:52.380Z,18.62
2019-03-26T04:00:50.833Z,17.50
2019-03-26T04:15:51.123Z,18.12
2019-03-26T04:30:51.092Z,16.60
2019-03-26T04:45:51.005Z,16.70
2019-03-26T05:00:51.034Z,19.35
2019-03-26T05:15:50.251Z,18.40
2019-03-26T05:30:49.782Z,16.17
2019-03-26T05:45:50.209Z,17.77
2019-03-26T06:00:51.143Z,17.15
2019-03-26T06:15:50.541Z,21.33
2019-03-26T06:30:54.034Z,20.52
2019-03-26T06:45:50.358Z,16.05
2019-03-26T07:00:50.351Z,20.25
2019-03-26T07:15:50.746Z,13.18
2019-03-26T07:30:50.699Z,13.62
2019-03-26T07:45:50.648Z,11.90
2019-03-26T08:00:50.559Z,14.90
2019-03-26T08:15:50.952Z,11.15
2019-03-26T08:30:50.961Z,12.80
2019-03-26T08:45:50.330Z,12.43
2019-03-26T09:15:50.610Z,14.75
2019-03-26T09:30:56.559Z,14.45
2019-03-26T09:45:50.490Z,16.40
2019-03-26T10:00:50.518Z,12.10
2019-03-26T10:15:50.937Z,12.58
2019-03-26T10:30:50.965Z,14.70
2019-03-26T10:45:50.914Z,16.25
2019-03-26T11:00:53.769Z,16.45
2019-03-26T11:15:51.087Z,19.35
2019-03-26T11:30:51.022Z,21.45
2019-03-26T11:45:51.092Z,17.20
2019-03-26T12:00:53.936Z,19.60
2019-03-26T12:15:50.901Z,17.15
2019-03-26T12:30:50.366Z,20.95
2019-03-26T12:45:50.457Z,23.35
2019-03-26T13:00:50.311Z,18.77
2019-03-26T13:15:50.598Z,16.87
2019-03-26T13:30:50.566Z,20.72
2019-03-26T13:45:56.348Z,23.38
2019-03-26T14:00:50.438Z,17.62
2019-03-26T14:15:50.669Z,19.05
2019-03-26T14:30:51.679Z,16.32
2019-03-26T14:45:50.619Z,19.27
2019-03-26T15:00:50.570Z,18.77
2019-03-26T15:15:51.617Z,25.95
2019-03-26T15:30:51.038Z,22.15
2019-03-26T15:45:50.861Z,19.20
2019-03-26T16:00:51.228Z,20.75
2019-03-26T16:15:51.921Z,26.23
2019-03-26T16:30:51.225Z,13.60
2019-03-26T16:45:55.660Z,13.40
2019-03-26T17:00:54.607Z,11.75
2019-03-26T17:16:00.486Z,11.97
2019-03-26T17:31:00.500Z,10.65
2019-03-26T18:00:56.195Z,17.00
2019-03-26T18:15:51.645Z,21.60
2019-03-26T18:30:56.359Z,19.60
2019-03-26T18:45:57.590Z,18.50
2019-03-26T19:00:52.985Z,15.75
2019-03-26T19:15:56.742Z,12.85
2019-03-26T19:30:53.744Z,14.33
2019-03-26T20:00:52.846Z,15.18
2019-03-26T20:30:57.605Z,11.03
2019-03-26T20:45:51.523Z,10.95
2019-03-26T21:00:50.911Z,8.40
2019-03-26T21:45:50.718Z,9.63
2019-03-26T22:00:50.729Z,7.90
2019-03-26T22:15:51.320Z,9.98
2019-03-26T22:30:54.306Z,11.35
2019-03-26T22:45:54.183Z,9.78
2019-03-26T23:00:51.068Z,7.75
2019-03-26T23:15:51.138Z,12.35
2019-03-26T23:30:51.114Z,11.25
2019-03-26T23:45:57.472Z,10.68
